sensor_id;sensor_type;location;lat;lon;timestamp;temperature;humidity
24207;DHT22;12351;52.284;9.160;2024-03-25T00:00:30;5.80;99.90
24207;DHT22;12351;52.284;9.160;2024-03-25T00:03:19;5.80;99.90
24207;DHT22;12351;52.284;9.160;2024-03-25T00:06:07;5.80;99.90
24207;DHT22;12351;52.284;9.160;2024-03-25T00:08:55;5.80;99.90
24207;DHT22;12351;52.284;9.160;2024-03-25T00:11:43;5.80;99.90
24207;DHT22;12351;52.284;9.160;2024-03-25T00:14:32;5.80;99.90
24207;DHT22;12351;52.284;9.160;2024-03-25T00:17:19;5.80;99.90
24207;DHT22;12351;52.284;9.160;2024-03-25T00:20:07;5.80;99.90
24207;DHT22;12351;52.284;9.160;2024-03-25T00:22:56;5.80;99.90
24207;DHT22;12351;52.284;9.160;2024-03-25T00:25:44;5.80;99.90
24207;DHT22;12351;52.284;9.160;2024-03-25T00:28:35;5.80;99.90
24207;DHT22;12351;52.284;9.160;2024-03-25T00:31:21;5.80;99.90
24207;DHT22;12351;52.284;9.160;2024-03-25T00:34:12;5.80;99.90
24207;DHT22;12351;52.284;9.160;2024-03-25T00:37:01;5.80;99.90
24207;DHT22;12351;52.284;9.160;2024-03-25T00:39:51;5.80;99.90
24207;DHT22;12351;52.284;9.160;2024-03-25T00:42:40;5.80;99.90
24207;DHT22;12351;52.284;9.160;2024-03-25T00:45:29;5.80;99.90
24207;DHT22;12351;52.284;9.160;2024-03-25T00:48:18;5.80;99.90
24207;DHT22;12351;52.284;9.160;2024-03-25T00:51:05;5.80;99.90
24207;DHT22;12351;52.284;9.160;2024-03-25T00:53:52;5.80;99.90
24207;DHT22;12351;52.284;9.160;2024-03-25T00:56:40;5.70;99.90
24207;DHT22;12351;52.284;9.160;2024-03-25T00:59:29;5.70;99.90
24207;DHT22;12351;52.284;9.160;2024-03-25T01:02:19;5.70;99.90
24207;DHT22;12351;52.284;9.160;2024-03-25T01:05:09;5.70;99.90
24207;DHT22;12351;52.284;9.160;2024-03-25T01:07:58;5.70;99.90
24207;DHT22;12351;52.284;9.160;2024-03-25T01:10:46;5.70;99.90
24207;DHT22;12351;52.284;9.160;2024-03-25T01:13:33;5.70;99.90
24207;DHT22;12351;52.284;9.160;2024-03-25T01:16:20;5.70;99.90
24207;DHT22;12351;52.284;9.160;2024-03-25T01:19:07;5.70;99.90
24207;DHT22;12351;52.284;9.160;2024-03-25T01:21:54;5.70;99.90
24207;DHT22;12351;52.284;9.160;2024-03-25T01:24:41;5.70;99.90
24207;DHT22;12351;52.284;9.160;2024-03-25T01:27:31;5.70;99.90
24207;DHT22;12351;52.284;9.160;2024-03-25T01:30:21;5.70;99.90
24207;DHT22;12351;52.284;9.160;2024-03-25T01:33:09;5.70;99.90
24207;DHT22;12351;52.284;9.160;2024-03-25T01:35:57;5.70;99.90
24207;DHT22;12351;52.284;9.160;2024-03-25T01:38:46;5.70;99.90
24207;DHT22;12351;52.284;9.160;2024-03-25T01:41:34;5.60;99.90
24207;DHT22;12351;52.284;9.160;2024-03-25T01:44:23;5.70;99.90
24207;DHT22;12351;52.284;9.160;2024-03-25T01:47:11;5.60;99.90
24207;DHT22;12351;52.284;9.160;2024-03-25T01:50:01;5.60;99.90
24207;DHT22;12351;52.284;9.160;2024-03-25T01:52:50;5.60;99.90
24207;DHT22;12351;52.284;9.160;2024-03-25T01:55:42;5.60;99.90
24207;DHT22;12351;52.284;9.160;2024-03-25T01:58:31;5.60;99.90
24207;DHT22;12351;52.284;9.160;2024-03-25T02:01:20;5.60;99.90
24207;DHT22;12351;52.284;9.160;2024-03-25T02:04:09;5.60;99.90
24207;DHT22;12351;52.284;9.160;2024-03-25T02:06:57;5.60;99.90
24207;DHT22;12351;52.284;9.160;2024-03-25T02:09:46;5.60;99.90
24207;DHT22;12351;52.284;9.160;2024-03-25T02:12:34;5.60;99.90
24207;DHT22;12351;52.284;9.160;2024-03-25T02:15:23;5.60;99.90
24207;DHT22;12351;52.284;9.160;2024-03-25T02:18:12;5.60;99.90
24207;DHT22;12351;52.284;9.160;2024-03-25T02:21:01;5.60;99.90
24207;DHT22;12351;52.284;9.160;2024-03-25T02:23:51;5.50;99.90
24207;DHT22;12351;52.284;9.160;2024-03-25T02:26:43;5.60;99.90
24207;DHT22;12351;52.284;9.160;2024-03-25T02:29:32;5.60;99.90
24207;DHT22;12351;52.284;9.160;2024-03-25T02:32:20;5.60;99.90
24207;DHT22;12351;52.284;9.160;2024-03-25T02:35:10;5.60;99.90
24207;DHT22;12351;52.284;9.160;2024-03-25T02:37:59;5.50;99.90
24207;DHT22;12351;52.284;9.160;2024-03-25T02:40:46;5.50;99.90
24207;DHT22;12351;52.284;9.160;2024-03-25T02:43:33;5.50;99.90
24207;DHT22;12351;52.284;9.160;2024-03-25T02:46:22;5.50;99.90
24207;DHT22;12351;52.284;9.160;2024-03-25T02:49:10;5.50;99.90
24207;DHT22;12351;52.284;9.160;2024-03-25T02:51:57;5.50;99.90
24207;DHT22;12351;52.284;9.160;2024-03-25T02:54:47;5.50;99.90
24207;DHT22;12351;52.284;9.160;2024-03-25T02:57:36;5.40;99.90
24207;DHT22;12351;52.284;9.160;2024-03-25T03:00:27;5.40;99.90
24207;DHT22;12351;52.284;9.160;2024-03-25T03:03:15;5.40;99.90
24207;DHT22;12351;52.284;9.160;2024-03-25T03:06:02;5.50;99.90
24207;DHT22;12351;52.284;9.160;2024-03-25T03:08:51;5.50;99.90
24207;DHT22;12351;52.284;9.160;2024-03-25T03:11:40;5.50;99.90
24207;DHT22;12351;52.284;9.160;2024-03-25T03:14:30;5.50;99.90
24207;DHT22;12351;52.284;9.160;2024-03-25T03:17:17;5.50;99.90
24207;DHT22;12351;52.284;9.160;2024-03-25T03:20:05;5.50;99.90
24207;DHT22;12351;52.284;9.160;2024-03-25T03:22:53;5.50;99.90
24207;DHT22;12351;52.284;9.160;2024-03-25T03:25:42;5.50;99.90
24207;DHT22;12351;52.284;9.160;2024-03-25T03:28:30;5.50;99.90
24207;DHT22;12351;52.284;9.160;2024-03-25T03:31:19;5.50;99.90
24207;DHT22;12351;52.284;9.160;2024-03-25T03:34:07;5.50;99.90
24207;DHT22;12351;52.284;9.160;2024-03-25T03:36:55;5.50;99.90
24207;DHT22;12351;52.284;9.160;2024-03-25T03:39:43;5.50;99.90
24207;DHT22;12351;52.284;9.160;2024-03-25T03:42:30;5.50;99.90
24207;DHT22;12351;52.284;9.160;2024-03-25T03:45:18;5.50;99.90
24207;DHT22;12351;52.284;9.160;2024-03-25T03:48:07;5.50;99.90
24207;DHT22;12351;52.284;9.160;2024-03-25T03:50:54;5.50;99.90
24207;DHT22;12351;52.284;9.160;2024-03-25T03:53:45;5.50;99.90
24207;DHT22;12351;52.284;9.160;2024-03-25T03:56:32;5.50;99.90
24207;DHT22;12351;52.284;9.160;2024-03-25T03:59:19;5.50;99.90
24207;DHT22;12351;52.284;9.160;2024-03-25T04:02:10;5.50;99.90
24207;DHT22;12351;52.284;9.160;2024-03-25T04:05:00;5.50;99.90
24207;DHT22;12351;52.284;9.160;2024-03-25T04:07:47;5.50;99.90
24207;DHT22;12351;52.284;9.160;2024-03-25T04:10:37;5.50;99.90
24207;DHT22;12351;52.284;9.160;2024-03-25T04:13:26;5.50;99.90
24207;DHT22;12351;52.284;9.160;2024-03-25T04:16:13;5.50;99.90
24207;DHT22;12351;52.284;9.160;2024-03-25T04:19:04;5.50;99.90
24207;DHT22;12351;52.284;9.160;2024-03-25T04:21:53;5.50;99.90
24207;DHT22;12351;52.284;9.160;2024-03-25T04:24:43;5.50;99.90
24207;DHT22;12351;52.284;9.160;2024-03-25T04:27:30;5.50;99.90
24207;DHT22;12351;52.284;9.160;2024-03-25T04:30:17;5.40;99.90
24207;DHT22;12351;52.284;9.160;2024-03-25T04:33:04;5.50;99.90
24207;DHT22;12351;52.284;9.160;2024-03-25T04:35:53;5.50;99.90
24207;DHT22;12351;52.284;9.160;2024-03-25T04:38:41;5.50;99.90
24207;DHT22;12351;52.284;9.160;2024-03-25T04:41:29;5.40;99.90
24207;DHT22;12351;52.284;9.160;2024-03-25T04:44:19;5.50;99.90
24207;DHT22;12351;52.284;9.160;2024-03-25T04:47:08;5.50;99.90
24207;DHT22;12351;52.284;9.160;2024-03-25T04:49:56;5.40;99.90
24207;DHT22;12351;52.284;9.160;2024-03-25T04:52:44;5.40;99.90
24207;DHT22;12351;52.284;9.160;2024-03-25T04:55:31;5.50;99.90
24207;DHT22;12351;52.284;9.160;2024-03-25T04:58:19;5.50;99.90
24207;DHT22;12351;52.284;9.160;2024-03-25T05:01:07;5.40;99.90
24207;DHT22;12351;52.284;9.160;2024-03-25T05:03:55;5.40;99.90
24207;DHT22;12351;52.284;9.160;2024-03-25T05:06:44;5.50;99.90
24207;DHT22;12351;52.284;9.160;2024-03-25T05:09:32;5.50;99.90
24207;DHT22;12351;52.284;9.160;2024-03-25T05:12:19;5.40;99.90
24207;DHT22;12351;52.284;9.160;2024-03-25T05:15:09;5.40;99.90
24207;DHT22;12351;52.284;9.160;2024-03-25T05:17:57;5.40;99.90
24207;DHT22;12351;52.284;9.160;2024-03-25T05:20:45;5.40;99.90
24207;DHT22;12351;52.284;9.160;2024-03-25T05:23:32;5.40;99.90
24207;DHT22;12351;52.284;9.160;2024-03-25T05:26:19;5.40;99.90
24207;DHT22;12351;52.284;9.160;2024-03-25T05:29:06;5.40;99.90
24207;DHT22;12351;52.284;9.160;2024-03-25T05:31:57;5.40;99.90
24207;DHT22;12351;52.284;9.160;2024-03-25T05:34:46;5.40;99.90
24207;DHT22;12351;52.284;9.160;2024-03-25T05:37:34;5.40;99.90
24207;DHT22;12351;52.284;9.160;2024-03-25T05:40:23;5.40;99.90
24207;DHT22;12351;52.284;9.160;2024-03-25T05:43:11;5.40;99.90
24207;DHT22;12351;52.284;9.160;2024-03-25T05:46:00;5.40;99.90
24207;DHT22;12351;52.284;9.160;2024-03-25T05:48:49;5.40;99.90
24207;DHT22;12351;52.284;9.160;2024-03-25T05:51:38;5.50;99.90
24207;DHT22;12351;52.284;9.160;2024-03-25T05:54:26;5.50;99.90
24207;DHT22;12351;52.284;9.160;2024-03-25T05:57:15;5.40;99.90
24207;DHT22;12351;52.284;9.160;2024-03-25T06:00:04;5.50;99.90
24207;DHT22;12351;52.284;9.160;2024-03-25T06:02:50;5.50;99.90
24207;DHT22;12351;52.284;9.160;2024-03-25T06:05:38;5.40;99.90
24207;DHT22;12351;52.284;9.160;2024-03-25T06:08:25;5.50;99.90
24207;DHT22;12351;52.284;9.160;2024-03-25T06:11:12;5.50;99.90
24207;DHT22;12351;52.284;9.160;2024-03-25T06:14:00;5.50;99.90
24207;DHT22;12351;52.284;9.160;2024-03-25T06:16:48;5.50;99.90
24207;DHT22;12351;52.284;9.160;2024-03-25T06:19:36;5.50;99.90
24207;DHT22;12351;52.284;9.160;2024-03-25T06:22:23;5.50;99.90
24207;DHT22;12351;52.284;9.160;2024-03-25T06:25:10;5.50;99.90
24207;DHT22;12351;52.284;9.160;2024-03-25T06:28:00;5.50;99.90
24207;DHT22;12351;52.284;9.160;2024-03-25T06:30:47;5.50;99.90
24207;DHT22;12351;52.284;9.160;2024-03-25T06:33:38;5.50;99.90
24207;DHT22;12351;52.284;9.160;2024-03-25T06:36:27;5.50;99.90
24207;DHT22;12351;52.284;9.160;2024-03-25T06:39:15;5.50;99.90
24207;DHT22;12351;52.284;9.160;2024-03-25T06:42:08;5.50;99.90
24207;DHT22;12351;52.284;9.160;2024-03-25T06:44:54;5.50;99.90
24207;DHT22;12351;52.284;9.160;2024-03-25T06:47:41;5.50;99.90
24207;DHT22;12351;52.284;9.160;2024-03-25T06:50:28;5.50;99.90
24207;DHT22;12351;52.284;9.160;2024-03-25T06:53:17;5.50;99.90
24207;DHT22;12351;52.284;9.160;2024-03-25T06:56:04;5.60;99.90
24207;DHT22;12351;52.284;9.160;2024-03-25T06:58:51;5.60;99.90
24207;DHT22;12351;52.284;9.160;2024-03-25T07:01:40;5.60;99.90
24207;DHT22;12351;52.284;9.160;2024-03-25T07:04:27;5.60;99.90
24207;DHT22;12351;52.284;9.160;2024-03-25T07:07:18;5.60;99.90
24207;DHT22;12351;52.284;9.160;2024-03-25T07:10:04;5.60;99.90
24207;DHT22;12351;52.284;9.160;2024-03-25T07:12:53;5.60;99.90
24207;DHT22;12351;52.284;9.160;2024-03-25T07:15:42;5.60;99.90
24207;DHT22;12351;52.284;9.160;2024-03-25T07:18:31;5.70;99.90
24207;DHT22;12351;52.284;9.160;2024-03-25T07:21:20;5.70;99.90
24207;DHT22;12351;52.284;9.160;2024-03-25T07:24:08;5.70;99.90
24207;DHT22;12351;52.284;9.160;2024-03-25T07:26:55;5.80;99.90
24207;DHT22;12351;52.284;9.160;2024-03-25T07:29:42;5.80;99.90
24207;DHT22;12351;52.284;9.160;2024-03-25T07:32:30;5.90;99.90
24207;DHT22;12351;52.284;9.160;2024-03-25T07:35:17;6.00;99.90
24207;DHT22;12351;52.284;9.160;2024-03-25T07:38:06;6.00;99.90
24207;DHT22;12351;52.284;9.160;2024-03-25T07:40:54;6.00;99.90
24207;DHT22;12351;52.284;9.160;2024-03-25T07:43:43;6.00;99.90
24207;DHT22;12351;52.284;9.160;2024-03-25T07:46:30;6.10;99.90
24207;DHT22;12351;52.284;9.160;2024-03-25T07:49:18;6.10;99.90
24207;DHT22;12351;52.284;9.160;2024-03-25T07:52:07;6.20;99.90
24207;DHT22;12351;52.284;9.160;2024-03-25T07:54:56;6.20;99.90
24207;DHT22;12351;52.284;9.160;2024-03-25T07:57:44;6.20;99.90
24207;DHT22;12351;52.284;9.160;2024-03-25T08:00:31;6.30;99.90
24207;DHT22;12351;52.284;9.160;2024-03-25T08:03:19;6.40;99.90
24207;DHT22;12351;52.284;9.160;2024-03-25T08:06:08;6.40;99.90
24207;DHT22;12351;52.284;9.160;2024-03-25T08:08:56;6.50;99.90
24207;DHT22;12351;52.284;9.160;2024-03-25T08:11:44;6.60;99.90
24207;DHT22;12351;52.284;9.160;2024-03-25T08:14:31;6.60;99.90
24207;DHT22;12351;52.284;9.160;2024-03-25T08:17:18;6.70;99.90
24207;DHT22;12351;52.284;9.160;2024-03-25T08:20:07;6.70;99.90
24207;DHT22;12351;52.284;9.160;2024-03-25T08:22:54;6.80;99.90
24207;DHT22;12351;52.284;9.160;2024-03-25T08:25:41;6.90;99.90
24207;DHT22;12351;52.284;9.160;2024-03-25T08:28:28;6.90;99.90
24207;DHT22;12351;52.284;9.160;2024-03-25T08:31:17;7.00;99.90
24207;DHT22;12351;52.284;9.160;2024-03-25T08:34:07;7.10;99.90
24207;DHT22;12351;52.284;9.160;2024-03-25T08:36:55;7.20;99.90
24207;DHT22;12351;52.284;9.160;2024-03-25T08:39:43;7.20;99.90
24207;DHT22;12351;52.284;9.160;2024-03-25T08:42:32;7.40;99.90
24207;DHT22;12351;52.284;9.160;2024-03-25T08:45:19;7.40;99.90
24207;DHT22;12351;52.284;9.160;2024-03-25T08:48:07;7.40;99.90
24207;DHT22;12351;52.284;9.160;2024-03-25T08:50:54;7.50;99.90
24207;DHT22;12351;52.284;9.160;2024-03-25T08:53:41;7.60;99.90
24207;DHT22;12351;52.284;9.160;2024-03-25T08:56:29;7.70;99.90
24207;DHT22;12351;52.284;9.160;2024-03-25T08:59:18;7.80;99.90
24207;DHT22;12351;52.284;9.160;2024-03-25T09:02:06;7.90;99.90
24207;DHT22;12351;52.284;9.160;2024-03-25T09:04:56;7.90;99.90
24207;DHT22;12351;52.284;9.160;2024-03-25T09:07:48;7.90;99.90
24207;DHT22;12351;52.284;9.160;2024-03-25T09:10:38;8.00;99.90
24207;DHT22;12351;52.284;9.160;2024-03-25T09:13:27;8.00;99.90
24207;DHT22;12351;52.284;9.160;2024-03-25T09:19:07;8.30;99.90
24207;DHT22;12351;52.284;9.160;2024-03-25T09:21:55;8.30;99.90
24207;DHT22;12351;52.284;9.160;2024-03-25T09:24:43;8.40;99.90
24207;DHT22;12351;52.284;9.160;2024-03-25T09:27:32;8.50;99.90
24207;DHT22;12351;52.284;9.160;2024-03-25T09:30:19;8.50;99.90
24207;DHT22;12351;52.284;9.160;2024-03-25T09:33:09;8.60;99.90
24207;DHT22;12351;52.284;9.160;2024-03-25T09:35:58;8.70;99.90
24207;DHT22;12351;52.284;9.160;2024-03-25T09:38:45;8.70;99.90
24207;DHT22;12351;52.284;9.160;2024-03-25T09:41:35;8.70;99.90
24207;DHT22;12351;52.284;9.160;2024-03-25T09:44:24;8.70;99.90
24207;DHT22;12351;52.284;9.160;2024-03-25T09:47:13;8.70;99.90
24207;DHT22;12351;52.284;9.160;2024-03-25T09:50:04;8.70;99.90
24207;DHT22;12351;52.284;9.160;2024-03-25T09:52:54;8.70;99.90
24207;DHT22;12351;52.284;9.160;2024-03-25T09:55:44;8.70;99.90
24207;DHT22;12351;52.284;9.160;2024-03-25T09:58:34;8.90;99.90
24207;DHT22;12351;52.284;9.160;2024-03-25T10:01:23;9.00;99.90
24207;DHT22;12351;52.284;9.160;2024-03-25T10:04:12;9.00;99.90
24207;DHT22;12351;52.284;9.160;2024-03-25T10:07:00;9.10;99.90
24207;DHT22;12351;52.284;9.160;2024-03-25T10:09:50;9.10;99.90
24207;DHT22;12351;52.284;9.160;2024-03-25T10:12:39;9.10;99.90
24207;DHT22;12351;52.284;9.160;2024-03-25T10:15:28;9.10;99.90
24207;DHT22;12351;52.284;9.160;2024-03-25T10:18:17;9.00;99.90
24207;DHT22;12351;52.284;9.160;2024-03-25T10:21:05;9.00;99.90
24207;DHT22;12351;52.284;9.160;2024-03-25T10:23:54;9.00;99.90
24207;DHT22;12351;52.284;9.160;2024-03-25T10:26:43;9.10;99.90
24207;DHT22;12351;52.284;9.160;2024-03-25T10:29:32;9.10;99.90
24207;DHT22;12351;52.284;9.160;2024-03-25T10:32:21;9.10;99.90
24207;DHT22;12351;52.284;9.160;2024-03-25T10:35:10;9.10;99.90
24207;DHT22;12351;52.284;9.160;2024-03-25T10:38:01;9.10;99.90
24207;DHT22;12351;52.284;9.160;2024-03-25T10:40:52;9.10;99.90
24207;DHT22;12351;52.284;9.160;2024-03-25T10:43:42;9.10;99.90
24207;DHT22;12351;52.284;9.160;2024-03-25T10:46:31;9.10;99.90
24207;DHT22;12351;52.284;9.160;2024-03-25T10:49:21;9.10;99.90
24207;DHT22;12351;52.284;9.160;2024-03-25T10:52:09;9.20;99.90
24207;DHT22;12351;52.284;9.160;2024-03-25T10:55:00;9.40;99.90
24207;DHT22;12351;52.284;9.160;2024-03-25T11:00:37;9.70;99.90
24207;DHT22;12351;52.284;9.160;2024-03-25T11:03:25;9.80;99.90
24207;DHT22;12351;52.284;9.160;2024-03-25T11:06:13;9.90;99.90
24207;DHT22;12351;52.284;9.160;2024-03-25T11:09:02;10.00;99.90
24207;DHT22;12351;52.284;9.160;2024-03-25T11:11:52;10.00;99.90
24207;DHT22;12351;52.284;9.160;2024-03-25T11:14:40;10.00;99.90
24207;DHT22;12351;52.284;9.160;2024-03-25T11:17:30;10.10;99.90
24207;DHT22;12351;52.284;9.160;2024-03-25T11:20:18;10.20;99.90
24207;DHT22;12351;52.284;9.160;2024-03-25T11:23:09;10.30;99.90
24207;DHT22;12351;52.284;9.160;2024-03-25T11:25:56;10.40;99.90
24207;DHT22;12351;52.284;9.160;2024-03-25T11:28:44;10.50;99.90
24207;DHT22;12351;52.284;9.160;2024-03-25T11:31:33;10.50;99.90
24207;DHT22;12351;52.284;9.160;2024-03-25T11:34:21;10.50;99.90
24207;DHT22;12351;52.284;9.160;2024-03-25T11:37:08;10.50;99.90
24207;DHT22;12351;52.284;9.160;2024-03-25T11:42:46;10.50;99.90
24207;DHT22;12351;52.284;9.160;2024-03-25T11:45:34;10.60;99.90
24207;DHT22;12351;52.284;9.160;2024-03-25T11:48:21;10.50;99.90
24207;DHT22;12351;52.284;9.160;2024-03-25T11:51:12;10.60;99.90
24207;DHT22;12351;52.284;9.160;2024-03-25T11:53:58;10.70;99.90
24207;DHT22;12351;52.284;9.160;2024-03-25T11:56:45;10.80;99.90
24207;DHT22;12351;52.284;9.160;2024-03-25T11:59:32;10.90;99.90
24207;DHT22;12351;52.284;9.160;2024-03-25T12:02:19;11.20;99.90
24207;DHT22;12351;52.284;9.160;2024-03-25T12:05:07;11.40;99.90
24207;DHT22;12351;52.284;9.160;2024-03-25T12:07:54;11.60;99.90
24207;DHT22;12351;52.284;9.160;2024-03-25T12:10:41;11.70;99.90
24207;DHT22;12351;52.284;9.160;2024-03-25T12:13:29;11.70;99.90
24207;DHT22;12351;52.284;9.160;2024-03-25T12:16:16;11.80;99.90
24207;DHT22;12351;52.284;9.160;2024-03-25T12:19:04;12.00;99.90
24207;DHT22;12351;52.284;9.160;2024-03-25T12:24:41;12.10;99.90
24207;DHT22;12351;52.284;9.160;2024-03-25T12:27:29;12.20;99.90
24207;DHT22;12351;52.284;9.160;2024-03-25T12:30:18;12.20;99.90
24207;DHT22;12351;52.284;9.160;2024-03-25T12:33:04;12.20;99.90
24207;DHT22;12351;52.284;9.160;2024-03-25T12:35:53;12.20;99.90
24207;DHT22;12351;52.284;9.160;2024-03-25T12:38:41;12.20;99.90
24207;DHT22;12351;52.284;9.160;2024-03-25T12:41:28;12.30;99.90
24207;DHT22;12351;52.284;9.160;2024-03-25T12:44:16;12.20;99.90
24207;DHT22;12351;52.284;9.160;2024-03-25T12:47:03;12.50;99.90
24207;DHT22;12351;52.284;9.160;2024-03-25T12:49:50;12.80;99.90
24207;DHT22;12351;52.284;9.160;2024-03-25T12:52:38;12.90;99.90
24207;DHT22;12351;52.284;9.160;2024-03-25T12:55:24;13.00;99.90
24207;DHT22;12351;52.284;9.160;2024-03-25T12:58:12;13.00;99.90
24207;DHT22;12351;52.284;9.160;2024-03-25T13:00:59;13.00;99.90
24207;DHT22;12351;52.284;9.160;2024-03-25T13:03:46;13.00;99.90
24207;DHT22;12351;52.284;9.160;2024-03-25T13:06:33;12.90;99.90
24207;DHT22;12351;52.284;9.160;2024-03-25T13:09:21;12.90;99.90
24207;DHT22;12351;52.284;9.160;2024-03-25T13:12:08;13.00;99.90
24207;DHT22;12351;52.284;9.160;2024-03-25T13:14:55;13.00;99.90
24207;DHT22;12351;52.284;9.160;2024-03-25T13:17:44;13.00;99.90
24207;DHT22;12351;52.284;9.160;2024-03-25T13:20:31;13.00;99.90
24207;DHT22;12351;52.284;9.160;2024-03-25T13:23:18;13.10;99.90
24207;DHT22;12351;52.284;9.160;2024-03-25T13:26:05;13.10;99.90
24207;DHT22;12351;52.284;9.160;2024-03-25T13:28:54;13.10;99.90
24207;DHT22;12351;52.284;9.160;2024-03-25T13:31:40;13.10;99.90
24207;DHT22;12351;52.284;9.160;2024-03-25T13:34:29;13.10;99.90
24207;DHT22;12351;52.284;9.160;2024-03-25T13:37:19;13.20;99.90
24207;DHT22;12351;52.284;9.160;2024-03-25T13:40:10;13.40;99.90
24207;DHT22;12351;52.284;9.160;2024-03-25T13:43:00;13.60;99.90
24207;DHT22;12351;52.284;9.160;2024-03-25T13:45:52;13.70;99.90
24207;DHT22;12351;52.284;9.160;2024-03-25T13:48:43;13.90;99.90
24207;DHT22;12351;52.284;9.160;2024-03-25T13:51:34;14.00;99.90
24207;DHT22;12351;52.284;9.160;2024-03-25T13:54:27;14.10;99.90
24207;DHT22;12351;52.284;9.160;2024-03-25T13:57:17;14.20;99.90
24207;DHT22;12351;52.284;9.160;2024-03-25T14:00:07;14.30;99.90
24207;DHT22;12351;52.284;9.160;2024-03-25T14:03:00;14.30;99.90
24207;DHT22;12351;52.284;9.160;2024-03-25T14:05:51;14.10;99.90
24207;DHT22;12351;52.284;9.160;2024-03-25T14:08:40;14.00;99.90
24207;DHT22;12351;52.284;9.160;2024-03-25T14:11:32;14.00;99.90
24207;DHT22;12351;52.284;9.160;2024-03-25T14:14:24;13.90;99.90
24207;DHT22;12351;52.284;9.160;2024-03-25T14:17:16;14.00;99.90
24207;DHT22;12351;52.284;9.160;2024-03-25T14:20:05;14.10;99.90
24207;DHT22;12351;52.284;9.160;2024-03-25T14:22:53;14.00;99.90
24207;DHT22;12351;52.284;9.160;2024-03-25T14:25:44;14.00;99.90
24207;DHT22;12351;52.284;9.160;2024-03-25T14:28:35;14.00;99.90
24207;DHT22;12351;52.284;9.160;2024-03-25T14:31:25;14.10;99.90
24207;DHT22;12351;52.284;9.160;2024-03-25T14:34:16;14.20;99.90
24207;DHT22;12351;52.284;9.160;2024-03-25T14:37:09;14.20;99.90
24207;DHT22;12351;52.284;9.160;2024-03-25T14:40:00;14.10;99.90
24207;DHT22;12351;52.284;9.160;2024-03-25T14:42:50;14.10;99.90
24207;DHT22;12351;52.284;9.160;2024-03-25T14:45:44;14.10;99.90
24207;DHT22;12351;52.284;9.160;2024-03-25T14:48:33;14.10;99.90
24207;DHT22;12351;52.284;9.160;2024-03-25T14:51:22;14.10;99.90
24207;DHT22;12351;52.284;9.160;2024-03-25T14:54:14;14.10;99.90
24207;DHT22;12351;52.284;9.160;2024-03-25T14:57:04;14.20;99.90
24207;DHT22;12351;52.284;9.160;2024-03-25T14:59:54;14.20;99.90
24207;DHT22;12351;52.284;9.160;2024-03-25T15:02:48;14.20;99.90
24207;DHT22;12351;52.284;9.160;2024-03-25T15:05:38;14.20;99.90
24207;DHT22;12351;52.284;9.160;2024-03-25T15:08:28;14.20;99.90
24207;DHT22;12351;52.284;9.160;2024-03-25T15:11:19;14.10;99.90
24207;DHT22;12351;52.284;9.160;2024-03-25T15:14:08;14.00;99.90
24207;DHT22;12351;52.284;9.160;2024-03-25T15:16:59;14.00;99.90
24207;DHT22;12351;52.284;9.160;2024-03-25T15:19:48;14.00;99.90
24207;DHT22;12351;52.284;9.160;2024-03-25T15:22:37;14.00;99.90
24207;DHT22;12351;52.284;9.160;2024-03-25T15:25:30;14.00;99.90
24207;DHT22;12351;52.284;9.160;2024-03-25T15:28:19;14.00;99.90
24207;DHT22;12351;52.284;9.160;2024-03-25T15:31:10;14.10;99.90
24207;DHT22;12351;52.284;9.160;2024-03-25T15:33:59;14.10;99.90
24207;DHT22;12351;52.284;9.160;2024-03-25T15:36:50;14.10;99.90
24207;DHT22;12351;52.284;9.160;2024-03-25T15:39:38;14.00;99.90
24207;DHT22;12351;52.284;9.160;2024-03-25T15:42:29;14.00;99.90
24207;DHT22;12351;52.284;9.160;2024-03-25T15:45:17;13.90;99.90
24207;DHT22;12351;52.284;9.160;2024-03-25T15:48:08;13.90;99.90
24207;DHT22;12351;52.284;9.160;2024-03-25T15:51:01;13.90;99.90
24207;DHT22;12351;52.284;9.160;2024-03-25T15:53:51;13.90;99.90
24207;DHT22;12351;52.284;9.160;2024-03-25T15:56:45;13.80;99.90
24207;DHT22;12351;52.284;9.160;2024-03-25T15:59:35;13.80;99.90
24207;DHT22;12351;52.284;9.160;2024-03-25T16:02:25;13.70;99.90
24207;DHT22;12351;52.284;9.160;2024-03-25T16:05:17;13.70;99.90
24207;DHT22;12351;52.284;9.160;2024-03-25T16:08:09;13.80;99.90
24207;DHT22;12351;52.284;9.160;2024-03-25T16:10:57;13.70;99.90
24207;DHT22;12351;52.284;9.160;2024-03-25T16:13:46;13.70;99.90
24207;DHT22;12351;52.284;9.160;2024-03-25T16:16:40;13.70;99.90
24207;DHT22;12351;52.284;9.160;2024-03-25T16:19:28;13.70;99.90
24207;DHT22;12351;52.284;9.160;2024-03-25T16:22:21;13.70;99.90
24207;DHT22;12351;52.284;9.160;2024-03-25T16:25:12;13.80;99.90
24207;DHT22;12351;52.284;9.160;2024-03-25T16:28:01;13.80;99.90
24207;DHT22;12351;52.284;9.160;2024-03-25T16:30:50;13.80;99.90
24207;DHT22;12351;52.284;9.160;2024-03-25T16:33:40;13.80;99.90
24207;DHT22;12351;52.284;9.160;2024-03-25T16:36:30;13.80;99.90
24207;DHT22;12351;52.284;9.160;2024-03-25T16:39:18;13.80;99.90
24207;DHT22;12351;52.284;9.160;2024-03-25T16:42:08;13.90;99.90
24207;DHT22;12351;52.284;9.160;2024-03-25T16:44:57;13.90;99.90
24207;DHT22;12351;52.284;9.160;2024-03-25T16:47:50;13.90;99.90
24207;DHT22;12351;52.284;9.160;2024-03-25T16:50:41;13.90;99.90
24207;DHT22;12351;52.284;9.160;2024-03-25T16:53:29;13.90;99.90
24207;DHT22;12351;52.284;9.160;2024-03-25T16:56:20;13.90;99.90
24207;DHT22;12351;52.284;9.160;2024-03-25T16:59:11;13.90;99.90
24207;DHT22;12351;52.284;9.160;2024-03-25T17:02:03;13.90;99.90
24207;DHT22;12351;52.284;9.160;2024-03-25T17:04:51;13.80;99.90
24207;DHT22;12351;52.284;9.160;2024-03-25T17:07:42;13.80;99.90
24207;DHT22;12351;52.284;9.160;2024-03-25T17:10:32;13.80;99.90
24207;DHT22;12351;52.284;9.160;2024-03-25T17:13:26;13.80;99.90
24207;DHT22;12351;52.284;9.160;2024-03-25T17:16:17;13.60;99.90
24207;DHT22;12351;52.284;9.160;2024-03-25T17:19:09;13.60;99.90
24207;DHT22;12351;52.284;9.160;2024-03-25T17:21:57;13.40;99.90
24207;DHT22;12351;52.284;9.160;2024-03-25T17:24:49;13.20;99.90
24207;DHT22;12351;52.284;9.160;2024-03-25T17:27:37;13.00;99.90
24207;DHT22;12351;52.284;9.160;2024-03-25T17:30:29;12.80;99.90
24207;DHT22;12351;52.284;9.160;2024-03-25T17:33:19;12.70;99.90
24207;DHT22;12351;52.284;9.160;2024-03-25T17:36:14;12.50;99.90
24207;DHT22;12351;52.284;9.160;2024-03-25T17:39:01;12.30;99.90
24207;DHT22;12351;52.284;9.160;2024-03-25T17:41:53;12.20;99.90
24207;DHT22;12351;52.284;9.160;2024-03-25T17:44:48;12.00;99.90
24207;DHT22;12351;52.284;9.160;2024-03-25T17:47:36;11.80;99.90
24207;DHT22;12351;52.284;9.160;2024-03-25T17:50:26;11.60;99.90
24207;DHT22;12351;52.284;9.160;2024-03-25T17:53:14;11.50;99.90
24207;DHT22;12351;52.284;9.160;2024-03-25T17:56:07;11.30;99.90
24207;DHT22;12351;52.284;9.160;2024-03-25T17:58:56;11.20;99.90
24207;DHT22;12351;52.284;9.160;2024-03-25T18:01:46;11.00;99.90
24207;DHT22;12351;52.284;9.160;2024-03-25T18:04:36;10.90;99.90
24207;DHT22;12351;52.284;9.160;2024-03-25T18:07:27;10.70;99.90